sensor_id;sensor_type;location;lat;lon;timestamp;P1;durP1;ratioP1;P2;durP2;ratioP2
45402;SDS011;47427;51.976;5.326;2023-06-26T00:00:04;19.65;;;17.95;;
45402;SDS011;47427;51.976;5.326;2023-06-26T00:03:26;18.90;;;17.48;;
45402;SDS011;47427;51.976;5.326;2023-06-26T00:06:49;19.20;;;17.73;;
45402;SDS011;47427;51.976;5.326;2023-06-26T00:10:11;18.40;;;16.63;;
45402;SDS011;47427;51.976;5.326;2023-06-26T00:13:35;17.80;;;16.25;;
45402;SDS011;47427;51.976;5.326;2023-06-26T00:16:56;17.75;;;16.55;;
45402;SDS011;47427;51.976;5.326;2023-06-26T00:20:18;17.80;;;16.20;;
45402;SDS011;47427;51.976;5.326;2023-06-26T00:23:39;18.08;;;16.67;;
45402;SDS011;47427;51.976;5.326;2023-06-26T00:27:01;17.85;;;16.38;;
45402;SDS011;47427;51.976;5.326;2023-06-26T00:30:22;18.75;;;17.35;;
45402;SDS011;47427;51.976;5.326;2023-06-26T00:33:46;19.05;;;17.63;;
45402;SDS011;47427;51.976;5.326;2023-06-26T00:37:08;18.85;;;17.20;;
45402;SDS011;47427;51.976;5.326;2023-06-26T00:40:29;18.60;;;17.08;;
45402;SDS011;47427;51.976;5.326;2023-06-26T00:43:56;19.98;;;16.92;;
45402;SDS011;47427;51.976;5.326;2023-06-26T00:47:42;20.88;;;17.95;;
45402;SDS011;47427;51.976;5.326;2023-06-26T00:51:04;18.35;;;16.42;;
45402;SDS011;47427;51.976;5.326;2023-06-26T00:54:27;19.15;;;17.60;;
45402;SDS011;47427;51.976;5.326;2023-06-26T00:57:48;19.05;;;17.30;;
45402;SDS011;47427;51.976;5.326;2023-06-26T01:01:10;17.58;;;16.27;;
45402;SDS011;47427;51.976;5.326;2023-06-26T01:04:35;18.83;;;16.77;;
45402;SDS011;47427;51.976;5.326;2023-06-26T01:07:57;18.08;;;16.25;;
45402;SDS011;47427;51.976;5.326;2023-06-26T01:11:19;16.98;;;15.68;;
45402;SDS011;47427;51.976;5.326;2023-06-26T01:14:43;16.30;;;14.75;;
45402;SDS011;47427;51.976;5.326;2023-06-26T01:18:05;15.85;;;14.30;;
45402;SDS011;47427;51.976;5.326;2023-06-26T01:21:28;15.05;;;13.57;;
45402;SDS011;47427;51.976;5.326;2023-06-26T01:25:01;15.63;;;13.97;;
45402;SDS011;47427;51.976;5.326;2023-06-26T01:28:41;14.65;;;13.45;;
45402;SDS011;47427;51.976;5.326;2023-06-26T01:32:04;14.40;;;13.02;;
45402;SDS011;47427;51.976;5.326;2023-06-26T01:35:26;15.55;;;14.20;;
45402;SDS011;47427;51.976;5.326;2023-06-26T01:38:50;15.63;;;14.13;;
45402;SDS011;47427;51.976;5.326;2023-06-26T01:42:12;16.63;;;14.07;;
45402;SDS011;47427;51.976;5.326;2023-06-26T01:45:36;16.73;;;15.18;;
45402;SDS011;47427;51.976;5.326;2023-06-26T01:52:49;16.30;;;14.65;;
45402;SDS011;47427;51.976;5.326;2023-06-26T01:56:50;16.95;;;14.98;;
45402;SDS011;47427;51.976;5.326;2023-06-26T02:00:18;20.85;;;15.13;;
45402;SDS011;47427;51.976;5.326;2023-06-26T02:03:42;18.10;;;15.15;;
45402;SDS011;47427;51.976;5.326;2023-06-26T02:07:03;19.58;;;15.30;;
45402;SDS011;47427;51.976;5.326;2023-06-26T02:10:29;16.75;;;15.10;;
45402;SDS011;47427;51.976;5.326;2023-06-26T02:13:51;19.17;;;16.58;;
45402;SDS011;47427;51.976;5.326;2023-06-26T02:17:12;17.65;;;14.85;;
45402;SDS011;47427;51.976;5.326;2023-06-26T02:20:34;18.10;;;15.90;;
45402;SDS011;47427;51.976;5.326;2023-06-26T02:23:56;17.23;;;15.07;;
45402;SDS011;47427;51.976;5.326;2023-06-26T02:27:17;17.52;;;15.05;;
45402;SDS011;47427;51.976;5.326;2023-06-26T02:30:39;17.50;;;15.23;;
45402;SDS011;47427;51.976;5.326;2023-06-26T02:34:00;17.55;;;15.63;;
45402;SDS011;47427;51.976;5.326;2023-06-26T02:37:22;17.67;;;15.88;;
45402;SDS011;47427;51.976;5.326;2023-06-26T02:40:43;18.17;;;15.73;;
45402;SDS011;47427;51.976;5.326;2023-06-26T02:44:09;17.73;;;15.63;;
45402;SDS011;47427;51.976;5.326;2023-06-26T02:47:56;18.27;;;15.18;;
45402;SDS011;47427;51.976;5.326;2023-06-26T02:51:20;20.35;;;16.52;;
45402;SDS011;47427;51.976;5.326;2023-06-26T02:54:43;18.23;;;16.37;;
45402;SDS011;47427;51.976;5.326;2023-06-26T02:58:05;23.20;;;20.48;;
45402;SDS011;47427;51.976;5.326;2023-06-26T03:01:28;21.27;;;19.20;;
45402;SDS011;47427;51.976;5.326;2023-06-26T03:04:50;22.35;;;19.15;;
45402;SDS011;47427;51.976;5.326;2023-06-26T03:08:13;25.73;;;18.42;;
45402;SDS011;47427;51.976;5.326;2023-06-26T03:11:37;25.08;;;18.25;;
45402;SDS011;47427;51.976;5.326;2023-06-26T03:14:59;24.23;;;19.38;;
45402;SDS011;47427;51.976;5.326;2023-06-26T03:18:23;27.33;;;19.83;;
45402;SDS011;47427;51.976;5.326;2023-06-26T03:21:45;32.47;;;18.67;;
45402;SDS011;47427;51.976;5.326;2023-06-26T03:25:06;28.40;;;19.27;;
45402;SDS011;47427;51.976;5.326;2023-06-26T03:28:30;30.17;;;18.73;;
45402;SDS011;47427;51.976;5.326;2023-06-26T03:31:58;31.45;;;20.75;;
45402;SDS011;47427;51.976;5.326;2023-06-26T03:35:19;35.25;;;20.90;;
45402;SDS011;47427;51.976;5.326;2023-06-26T03:38:42;23.60;;;19.83;;
45402;SDS011;47427;51.976;5.326;2023-06-26T03:46:14;31.65;;;19.48;;
45402;SDS011;47427;51.976;5.326;2023-06-26T03:49:38;26.27;;;20.13;;
45402;SDS011;47427;51.976;5.326;2023-06-26T03:53:00;23.20;;;19.58;;
45402;SDS011;47427;51.976;5.326;2023-06-26T03:56:21;31.33;;;21.15;;
45402;SDS011;47427;51.976;5.326;2023-06-26T03:59:43;26.85;;;20.63;;
45402;SDS011;47427;51.976;5.326;2023-06-26T04:03:30;28.17;;;20.60;;
45402;SDS011;47427;51.976;5.326;2023-06-26T04:07:11;37.80;;;21.70;;
45402;SDS011;47427;51.976;5.326;2023-06-26T04:10:33;23.30;;;20.33;;
45402;SDS011;47427;51.976;5.326;2023-06-26T04:13:56;31.42;;;21.90;;
45402;SDS011;47427;51.976;5.326;2023-06-26T04:17:43;25.67;;;20.67;;
45402;SDS011;47427;51.976;5.326;2023-06-26T04:21:30;30.08;;;19.75;;
45402;SDS011;47427;51.976;5.326;2023-06-26T04:25:17;30.88;;;20.88;;
45402;SDS011;47427;51.976;5.326;2023-06-26T04:28:38;26.98;;;20.25;;
45402;SDS011;47427;51.976;5.326;2023-06-26T04:32:03;27.92;;;19.27;;
45402;SDS011;47427;51.976;5.326;2023-06-26T04:35:25;22.90;;;19.65;;
45402;SDS011;47427;51.976;5.326;2023-06-26T04:38:49;21.65;;;19.48;;
45402;SDS011;47427;51.976;5.326;2023-06-26T04:46:02;21.50;;;19.47;;
45402;SDS011;47427;51.976;5.326;2023-06-26T04:49:24;26.02;;;20.50;;
45402;SDS011;47427;51.976;5.326;2023-06-26T04:52:45;27.45;;;19.40;;
45402;SDS011;47427;51.976;5.326;2023-06-26T04:56:07;22.23;;;18.92;;
45402;SDS011;47427;51.976;5.326;2023-06-26T04:59:34;33.80;;;19.85;;
45402;SDS011;47427;51.976;5.326;2023-06-26T05:02:56;29.10;;;18.77;;
45402;SDS011;47427;51.976;5.326;2023-06-26T05:06:21;20.55;;;17.95;;
45402;SDS011;47427;51.976;5.326;2023-06-26T05:09:43;25.10;;;19.63;;
45402;SDS011;47427;51.976;5.326;2023-06-26T05:13:07;27.25;;;19.63;;
45402;SDS011;47427;51.976;5.326;2023-06-26T05:16:54;19.95;;;18.08;;
45402;SDS011;47427;51.976;5.326;2023-06-26T05:20:15;20.70;;;18.23;;
45402;SDS011;47427;51.976;5.326;2023-06-26T05:23:37;20.83;;;17.48;;
45402;SDS011;47427;51.976;5.326;2023-06-26T05:26:58;20.35;;;17.67;;
45402;SDS011;47427;51.976;5.326;2023-06-26T05:30:20;20.45;;;17.60;;
45402;SDS011;47427;51.976;5.326;2023-06-26T05:34:08;19.83;;;17.52;;
45402;SDS011;47427;51.976;5.326;2023-06-26T05:37:58;19.98;;;17.70;;
45402;SDS011;47427;51.976;5.326;2023-06-26T05:41:45;18.95;;;17.02;;
45402;SDS011;47427;51.976;5.326;2023-06-26T05:45:12;19.65;;;17.67;;
45402;SDS011;47427;51.976;5.326;2023-06-26T05:48:36;27.02;;;18.58;;
45402;SDS011;47427;51.976;5.326;2023-06-26T05:51:57;18.48;;;16.55;;
45402;SDS011;47427;51.976;5.326;2023-06-26T05:55:21;23.65;;;18.23;;
45402;SDS011;47427;51.976;5.326;2023-06-26T05:58:46;18.88;;;17.25;;
45402;SDS011;47427;51.976;5.326;2023-06-26T06:02:08;18.13;;;16.48;;
45402;SDS011;47427;51.976;5.326;2023-06-26T06:05:30;19.80;;;16.67;;
45402;SDS011;47427;51.976;5.326;2023-06-26T06:08:54;18.55;;;16.60;;
45402;SDS011;47427;51.976;5.326;2023-06-26T06:12:18;18.65;;;16.88;;
45402;SDS011;47427;51.976;5.326;2023-06-26T06:15:40;19.52;;;16.17;;
45402;SDS011;47427;51.976;5.326;2023-06-26T06:19:01;17.75;;;15.82;;
45402;SDS011;47427;51.976;5.326;2023-06-26T06:22:24;19.13;;;16.27;;
45402;SDS011;47427;51.976;5.326;2023-06-26T06:25:45;16.95;;;15.45;;
45402;SDS011;47427;51.976;5.326;2023-06-26T06:29:07;17.58;;;15.85;;
45402;SDS011;47427;51.976;5.326;2023-06-26T06:32:28;17.40;;;15.77;;
45402;SDS011;47427;51.976;5.326;2023-06-26T06:39:16;17.67;;;16.15;;
45402;SDS011;47427;51.976;5.326;2023-06-26T06:42:37;18.00;;;16.27;;
45402;SDS011;47427;51.976;5.326;2023-06-26T06:45:59;18.40;;;16.42;;
45402;SDS011;47427;51.976;5.326;2023-06-26T06:49:23;17.92;;;16.55;;
45402;SDS011;47427;51.976;5.326;2023-06-26T06:53:10;17.85;;;15.95;;
45402;SDS011;47427;51.976;5.326;2023-06-26T06:56:31;18.65;;;15.52;;
45402;SDS011;47427;51.976;5.326;2023-06-26T06:59:53;17.08;;;15.52;;
45402;SDS011;47427;51.976;5.326;2023-06-26T07:03:14;17.67;;;16.10;;
45402;SDS011;47427;51.976;5.326;2023-06-26T07:06:36;18.73;;;16.85;;
45402;SDS011;47427;51.976;5.326;2023-06-26T07:09:58;18.10;;;16.23;;
45402;SDS011;47427;51.976;5.326;2023-06-26T07:13:31;17.95;;;16.35;;
45402;SDS011;47427;51.976;5.326;2023-06-26T07:16:52;17.40;;;16.15;;
45402;SDS011;47427;51.976;5.326;2023-06-26T07:20:14;18.73;;;16.70;;
45402;SDS011;47427;51.976;5.326;2023-06-26T07:23:38;17.17;;;15.60;;
45402;SDS011;47427;51.976;5.326;2023-06-26T07:27:00;18.48;;;16.30;;
45402;SDS011;47427;51.976;5.326;2023-06-26T07:30:47;18.15;;;16.63;;
45402;SDS011;47427;51.976;5.326;2023-06-26T07:34:34;17.27;;;15.55;;
45402;SDS011;47427;51.976;5.326;2023-06-26T07:38:01;18.95;;;14.98;;
45402;SDS011;47427;51.976;5.326;2023-06-26T07:41:25;16.88;;;15.18;;
45402;SDS011;47427;51.976;5.326;2023-06-26T07:44:51;16.73;;;15.35;;
45402;SDS011;47427;51.976;5.326;2023-06-26T07:48:12;16.75;;;15.25;;
45402;SDS011;47427;51.976;5.326;2023-06-26T07:51:34;18.27;;;15.52;;
45402;SDS011;47427;51.976;5.326;2023-06-26T07:55:23;25.98;;;16.05;;
45402;SDS011;47427;51.976;5.326;2023-06-26T07:59:12;16.52;;;15.15;;
45402;SDS011;47427;51.976;5.326;2023-06-26T08:03:00;18.08;;;16.33;;
45402;SDS011;47427;51.976;5.326;2023-06-26T08:06:21;16.65;;;15.30;;
45402;SDS011;47427;51.976;5.326;2023-06-26T08:09:43;16.80;;;15.55;;
45402;SDS011;47427;51.976;5.326;2023-06-26T08:13:04;15.98;;;14.57;;
45402;SDS011;47427;51.976;5.326;2023-06-26T08:16:26;15.07;;;13.95;;
45402;SDS011;47427;51.976;5.326;2023-06-26T08:19:49;15.27;;;12.82;;
45402;SDS011;47427;51.976;5.326;2023-06-26T08:23:10;13.48;;;12.48;;
45402;SDS011;47427;51.976;5.326;2023-06-26T08:26:34;15.00;;;13.55;;
45402;SDS011;47427;51.976;5.326;2023-06-26T08:29:58;14.80;;;13.50;;
45402;SDS011;47427;51.976;5.326;2023-06-26T08:33:20;15.88;;;14.13;;
45402;SDS011;47427;51.976;5.326;2023-06-26T08:36:41;17.45;;;13.45;;
45402;SDS011;47427;51.976;5.326;2023-06-26T08:40:03;14.32;;;12.90;;
45402;SDS011;47427;51.976;5.326;2023-06-26T08:43:26;18.35;;;13.35;;
45402;SDS011;47427;51.976;5.326;2023-06-26T08:46:48;15.52;;;13.75;;
45402;SDS011;47427;51.976;5.326;2023-06-26T08:50:13;15.05;;;13.55;;
45402;SDS011;47427;51.976;5.326;2023-06-26T08:57:42;15.13;;;13.82;;
45402;SDS011;47427;51.976;5.326;2023-06-26T09:01:04;15.32;;;13.98;;
45402;SDS011;47427;51.976;5.326;2023-06-26T09:04:50;14.50;;;12.95;;
45402;SDS011;47427;51.976;5.326;2023-06-26T09:08:42;13.93;;;12.77;;
45402;SDS011;47427;51.976;5.326;2023-06-26T09:12:07;15.52;;;13.93;;
45402;SDS011;47427;51.976;5.326;2023-06-26T09:16:03;14.98;;;13.60;;
45402;SDS011;47427;51.976;5.326;2023-06-26T09:19:18;14.32;;;13.10;;
45402;SDS011;47427;51.976;5.326;2023-06-26T09:23:05;16.02;;;14.50;;
45402;SDS011;47427;51.976;5.326;2023-06-26T09:26:54;13.60;;;12.30;;
45402;SDS011;47427;51.976;5.326;2023-06-26T09:30:20;14.40;;;12.75;;
45402;SDS011;47427;51.976;5.326;2023-06-26T09:33:42;13.70;;;12.50;;
45402;SDS011;47427;51.976;5.326;2023-06-26T09:37:08;14.52;;;13.63;;
45402;SDS011;47427;51.976;5.326;2023-06-26T09:40:34;13.05;;;11.95;;
45402;SDS011;47427;51.976;5.326;2023-06-26T09:43:57;14.63;;;13.38;;
45402;SDS011;47427;51.976;5.326;2023-06-26T09:47:48;14.73;;;13.35;;
45402;SDS011;47427;51.976;5.326;2023-06-26T09:51:35;13.98;;;12.95;;
45402;SDS011;47427;51.976;5.326;2023-06-26T09:55:10;13.85;;;12.80;;
45402;SDS011;47427;51.976;5.326;2023-06-26T09:58:35;14.90;;;13.10;;
45402;SDS011;47427;51.976;5.326;2023-06-26T10:01:59;14.77;;;13.35;;
45402;SDS011;47427;51.976;5.326;2023-06-26T10:05:23;15.20;;;13.73;;
45402;SDS011;47427;51.976;5.326;2023-06-26T10:08:46;14.48;;;13.13;;
45402;SDS011;47427;51.976;5.326;2023-06-26T10:12:37;13.07;;;11.90;;
45402;SDS011;47427;51.976;5.326;2023-06-26T10:15:59;13.60;;;12.60;;
45402;SDS011;47427;51.976;5.326;2023-06-26T10:19:21;14.63;;;13.25;;
45402;SDS011;47427;51.976;5.326;2023-06-26T10:22:47;13.50;;;12.57;;
45402;SDS011;47427;51.976;5.326;2023-06-26T10:26:09;13.07;;;11.80;;
45402;SDS011;47427;51.976;5.326;2023-06-26T10:29:40;14.95;;;13.70;;
45402;SDS011;47427;51.976;5.326;2023-06-26T10:33:03;13.27;;;12.27;;
45402;SDS011;47427;51.976;5.326;2023-06-26T10:36:27;14.15;;;12.98;;
45402;SDS011;47427;51.976;5.326;2023-06-26T10:39:52;12.88;;;12.07;;
45402;SDS011;47427;51.976;5.326;2023-06-26T10:43:16;13.30;;;12.05;;
45402;SDS011;47427;51.976;5.326;2023-06-26T10:50:21;15.43;;;13.85;;
45402;SDS011;47427;51.976;5.326;2023-06-26T10:53:56;13.82;;;12.70;;
45402;SDS011;47427;51.976;5.326;2023-06-26T10:57:25;15.15;;;13.75;;
45402;SDS011;47427;51.976;5.326;2023-06-26T11:00:50;14.30;;;13.27;;
45402;SDS011;47427;51.976;5.326;2023-06-26T11:04:12;18.23;;;12.98;;
45402;SDS011;47427;51.976;5.326;2023-06-26T11:07:37;14.48;;;13.38;;
45402;SDS011;47427;51.976;5.326;2023-06-26T11:15:13;15.02;;;13.73;;
45402;SDS011;47427;51.976;5.326;2023-06-26T11:18:37;16.33;;;14.68;;
45402;SDS011;47427;51.976;5.326;2023-06-26T11:22:01;14.98;;;13.70;;
45402;SDS011;47427;51.976;5.326;2023-06-26T11:25:51;15.65;;;14.40;;
45402;SDS011;47427;51.976;5.326;2023-06-26T11:29:12;14.48;;;13.30;;
45402;SDS011;47427;51.976;5.326;2023-06-26T11:33:02;16.42;;;14.70;;
45402;SDS011;47427;51.976;5.326;2023-06-26T11:36:56;14.55;;;13.45;;
45402;SDS011;47427;51.976;5.326;2023-06-26T11:40:48;14.77;;;13.68;;
45402;SDS011;47427;51.976;5.326;2023-06-26T11:44:13;14.90;;;13.73;;
45402;SDS011;47427;51.976;5.326;2023-06-26T11:47:37;15.05;;;13.63;;
45402;SDS011;47427;51.976;5.326;2023-06-26T11:51:00;16.17;;;14.98;;
45402;SDS011;47427;51.976;5.326;2023-06-26T11:54:25;14.90;;;13.95;;
45402;SDS011;47427;51.976;5.326;2023-06-26T11:57:54;14.38;;;13.18;;
45402;SDS011;47427;51.976;5.326;2023-06-26T12:01:42;15.25;;;14.18;;
45402;SDS011;47427;51.976;5.326;2023-06-26T12:05:33;15.23;;;13.88;;
45402;SDS011;47427;51.976;5.326;2023-06-26T12:08:56;14.60;;;13.60;;
45402;SDS011;47427;51.976;5.326;2023-06-26T12:12:21;13.80;;;13.00;;
45402;SDS011;47427;51.976;5.326;2023-06-26T12:15:43;14.20;;;13.25;;
45402;SDS011;47427;51.976;5.326;2023-06-26T12:19:05;13.98;;;13.18;;
45402;SDS011;47427;51.976;5.326;2023-06-26T12:22:38;14.18;;;13.38;;
45402;SDS011;47427;51.976;5.326;2023-06-26T12:26:25;13.82;;;12.93;;
45402;SDS011;47427;51.976;5.326;2023-06-26T12:29:52;13.50;;;11.98;;
45402;SDS011;47427;51.976;5.326;2023-06-26T12:33:15;13.88;;;12.90;;
45402;SDS011;47427;51.976;5.326;2023-06-26T12:36:40;14.27;;;13.27;;
45402;SDS011;47427;51.976;5.326;2023-06-26T12:40:15;13.95;;;13.23;;
45402;SDS011;47427;51.976;5.326;2023-06-26T12:43:39;14.85;;;13.80;;
45402;SDS011;47427;51.976;5.326;2023-06-26T12:47:01;14.35;;;13.07;;
45402;SDS011;47427;51.976;5.326;2023-06-26T12:50:24;14.65;;;13.60;;
45402;SDS011;47427;51.976;5.326;2023-06-26T12:53:59;14.93;;;13.90;;
45402;SDS011;47427;51.976;5.326;2023-06-26T12:57:23;14.10;;;13.20;;
45402;SDS011;47427;51.976;5.326;2023-06-26T13:01:10;14.27;;;13.48;;
45402;SDS011;47427;51.976;5.326;2023-06-26T13:04:34;14.10;;;12.82;;
45402;SDS011;47427;51.976;5.326;2023-06-26T13:07:58;11.85;;;11.15;;
45402;SDS011;47427;51.976;5.326;2023-06-26T13:11:20;14.38;;;13.40;;
45402;SDS011;47427;51.976;5.326;2023-06-26T13:14:43;13.60;;;12.75;;
45402;SDS011;47427;51.976;5.326;2023-06-26T13:18:10;13.77;;;12.68;;
45402;SDS011;47427;51.976;5.326;2023-06-26T13:21:32;13.77;;;12.77;;
45402;SDS011;47427;51.976;5.326;2023-06-26T13:24:55;14.00;;;13.20;;
45402;SDS011;47427;51.976;5.326;2023-06-26T13:28:16;13.63;;;12.68;;
45402;SDS011;47427;51.976;5.326;2023-06-26T13:31:38;13.00;;;12.30;;
45402;SDS011;47427;51.976;5.326;2023-06-26T13:35:00;13.52;;;12.65;;
45402;SDS011;47427;51.976;5.326;2023-06-26T13:38:22;12.98;;;12.18;;
45402;SDS011;47427;51.976;5.326;2023-06-26T13:41:45;13.60;;;12.77;;
45402;SDS011;47427;51.976;5.326;2023-06-26T13:45:07;11.80;;;11.20;;
45402;SDS011;47427;51.976;5.326;2023-06-26T13:48:29;14.30;;;13.20;;
45402;SDS011;47427;51.976;5.326;2023-06-26T13:51:51;13.50;;;12.50;;
45402;SDS011;47427;51.976;5.326;2023-06-26T13:55:37;13.05;;;12.23;;
45402;SDS011;47427;51.976;5.326;2023-06-26T13:59:24;13.20;;;12.48;;
45402;SDS011;47427;51.976;5.326;2023-06-26T14:03:11;12.55;;;11.60;;
45402;SDS011;47427;51.976;5.326;2023-06-26T14:06:58;13.10;;;12.30;;
45402;SDS011;47427;51.976;5.326;2023-06-26T14:10:20;16.35;;;12.90;;
45402;SDS011;47427;51.976;5.326;2023-06-26T14:13:43;13.13;;;12.13;;
45402;SDS011;47427;51.976;5.326;2023-06-26T14:17:04;13.98;;;12.98;;
45402;SDS011;47427;51.976;5.326;2023-06-26T14:20:26;14.52;;;13.40;;
45402;SDS011;47427;51.976;5.326;2023-06-26T14:24:14;12.88;;;11.77;;
45402;SDS011;47427;51.976;5.326;2023-06-26T14:27:36;13.43;;;11.65;;
45402;SDS011;47427;51.976;5.326;2023-06-26T14:30:58;12.98;;;12.20;;
45402;SDS011;47427;51.976;5.326;2023-06-26T14:34:19;13.10;;;12.23;;
45402;SDS011;47427;51.976;5.326;2023-06-26T14:37:43;13.15;;;12.18;;
45402;SDS011;47427;51.976;5.326;2023-06-26T14:41:30;14.48;;;13.57;;
45402;SDS011;47427;51.976;5.326;2023-06-26T14:44:52;14.48;;;13.27;;
45402;SDS011;47427;51.976;5.326;2023-06-26T14:48:13;13.40;;;12.20;;
45402;SDS011;47427;51.976;5.326;2023-06-26T14:51:38;13.37;;;12.27;;
45402;SDS011;47427;51.976;5.326;2023-06-26T14:55:00;12.55;;;11.77;;
45402;SDS011;47427;51.976;5.326;2023-06-26T14:58:28;12.82;;;12.00;;
45402;SDS011;47427;51.976;5.326;2023-06-26T15:01:49;13.27;;;12.52;;
45402;SDS011;47427;51.976;5.326;2023-06-26T15:05:11;14.25;;;13.10;;
45402;SDS011;47427;51.976;5.326;2023-06-26T15:08:32;11.88;;;10.85;;
45402;SDS011;47427;51.976;5.326;2023-06-26T15:11:54;12.60;;;11.75;;
45402;SDS011;47427;51.976;5.326;2023-06-26T15:15:15;14.10;;;13.20;;
45402;SDS011;47427;51.976;5.326;2023-06-26T15:18:38;12.57;;;11.77;;
45402;SDS011;47427;51.976;5.326;2023-06-26T15:22:04;14.65;;;13.38;;
45402;SDS011;47427;51.976;5.326;2023-06-26T15:25:26;12.75;;;11.70;;
45402;SDS011;47427;51.976;5.326;2023-06-26T15:28:52;11.57;;;10.98;;
45402;SDS011;47427;51.976;5.326;2023-06-26T15:32:15;13.00;;;11.85;;
45402;SDS011;47427;51.976;5.326;2023-06-26T15:35:37;11.93;;;11.10;;
45402;SDS011;47427;51.976;5.326;2023-06-26T15:38:59;12.18;;;11.00;;
45402;SDS011;47427;51.976;5.326;2023-06-26T15:42:20;11.35;;;10.65;;
45402;SDS011;47427;51.976;5.326;2023-06-26T15:45:47;11.38;;;10.68;;
45402;SDS011;47427;51.976;5.326;2023-06-26T15:49:11;11.73;;;11.02;;
45402;SDS011;47427;51.976;5.326;2023-06-26T15:52:32;12.88;;;12.05;;
45402;SDS011;47427;51.976;5.326;2023-06-26T15:56:19;12.82;;;12.05;;
45402;SDS011;47427;51.976;5.326;2023-06-26T15:59:42;10.73;;;10.07;;
45402;SDS011;47427;51.976;5.326;2023-06-26T16:03:06;11.70;;;10.80;;
45402;SDS011;47427;51.976;5.326;2023-06-26T16:06:28;12.25;;;11.13;;
45402;SDS011;47427;51.976;5.326;2023-06-26T16:09:52;11.80;;;11.05;;
45402;SDS011;47427;51.976;5.326;2023-06-26T16:13:38;12.75;;;11.95;;
45402;SDS011;47427;51.976;5.326;2023-06-26T16:17:25;12.63;;;11.82;;
45402;SDS011;47427;51.976;5.326;2023-06-26T16:20:52;12.13;;;11.23;;
45402;SDS011;47427;51.976;5.326;2023-06-26T16:24:16;12.70;;;11.82;;
45402;SDS011;47427;51.976;5.326;2023-06-26T16:27:38;12.05;;;11.25;;
45402;SDS011;47427;51.976;5.326;2023-06-26T16:30:59;12.40;;;11.50;;
45402;SDS011;47427;51.976;5.326;2023-06-26T16:34:21;12.38;;;11.32;;
45402;SDS011;47427;51.976;5.326;2023-06-26T16:38:10;12.52;;;11.70;;
45402;SDS011;47427;51.976;5.326;2023-06-26T16:41:31;13.25;;;11.98;;
45402;SDS011;47427;51.976;5.326;2023-06-26T16:45:03;11.50;;;10.77;;
45402;SDS011;47427;51.976;5.326;2023-06-26T16:48:25;12.48;;;11.68;;
45402;SDS011;47427;51.976;5.326;2023-06-26T16:52:15;12.93;;;12.13;;
45402;SDS011;47427;51.976;5.326;2023-06-26T16:55:37;12.18;;;11.38;;
45402;SDS011;47427;51.976;5.326;2023-06-26T16:59:25;12.20;;;11.30;;
45402;SDS011;47427;51.976;5.326;2023-06-26T17:02:50;13.80;;;12.40;;
45402;SDS011;47427;51.976;5.326;2023-06-26T17:06:11;11.85;;;10.80;;
45402;SDS011;47427;51.976;5.326;2023-06-26T17:09:34;11.57;;;10.73;;
45402;SDS011;47427;51.976;5.326;2023-06-26T17:12:56;12.07;;;11.18;;
45402;SDS011;47427;51.976;5.326;2023-06-26T17:16:21;13.40;;;12.50;;
45402;SDS011;47427;51.976;5.326;2023-06-26T17:19:45;13.43;;;12.23;;
45402;SDS011;47427;51.976;5.326;2023-06-26T17:23:06;13.10;;;12.18;;
45402;SDS011;47427;51.976;5.326;2023-06-26T17:26:28;14.85;;;12.45;;
45402;SDS011;47427;51.976;5.326;2023-06-26T17:29:50;14.15;;;13.20;;
45402;SDS011;47427;51.976;5.326;2023-06-26T17:33:12;12.30;;;11.52;;
45402;SDS011;47427;51.976;5.326;2023-06-26T17:36:37;14.45;;;12.60;;
45402;SDS011;47427;51.976;5.326;2023-06-26T17:39:58;13.90;;;12.70;;
45402;SDS011;47427;51.976;5.326;2023-06-26T17:43:20;14.48;;;13.13;;
45402;SDS011;47427;51.976;5.326;2023-06-26T17:46:44;13.60;;;12.63;;
45402;SDS011;47427;51.976;5.326;2023-06-26T17:50:07;14.20;;;12.90;;
45402;SDS011;47427;51.976;5.326;2023-06-26T17:53:56;13.52;;;12.45;;
45402;SDS011;47427;51.976;5.326;2023-06-26T17:57:42;13.52;;;12.60;;
45402;SDS011;47427;51.976;5.326;2023-06-26T18:01:29;12.85;;;11.65;;
45402;SDS011;47427;51.976;5.326;2023-06-26T18:05:16;19.10;;;12.20;;
45402;SDS011;47427;51.976;5.326;2023-06-26T18:08:43;12.43;;;11.45;;
45402;SDS011;47427;51.976;5.326;2023-06-26T18:12:05;12.65;;;11.65;;
45402;SDS011;47427;51.976;5.326;2023-06-26T18:15:27;13.23;;;11.98;;
45402;SDS011;47427;51.976;5.326;2023-06-26T18:18:51;12.70;;;11.20;;
45402;SDS011;47427;51.976;5.326;2023-06-26T18:22:21;12.65;;;11.75;;
45402;SDS011;47427;51.976;5.326;2023-06-26T18:25:42;13.00;;;11.55;;
45402;SDS011;47427;51.976;5.326;2023-06-26T18:29:09;12.93;;;11.70;;
45402;SDS011;47427;51.976;5.326;2023-06-26T18:32:32;13.05;;;11.82;;
45402;SDS011;47427;51.976;5.326;2023-06-26T18:39:43;12.60;;;11.60;;
45402;SDS011;47427;51.976;5.326;2023-06-26T18:43:06;12.48;;;11.57;;
45402;SDS011;47427;51.976;5.326;2023-06-26T18:46:28;13.30;;;12.20;;
45402;SDS011;47427;51.976;5.326;2023-06-26T18:49:51;15.13;;;11.70;;
45402;SDS011;47427;51.976;5.326;2023-06-26T18:53:12;12.40;;;11.50;;
45402;SDS011;47427;51.976;5.326;2023-06-26T18:56:59;12.50;;;11.60;;
45402;SDS011;47427;51.976;5.326;2023-06-26T19:00:21;13.13;;;11.55;;
45402;SDS011;47427;51.976;5.326;2023-06-26T19:03:43;12.50;;;11.50;;
45402;SDS011;47427;51.976;5.326;2023-06-26T19:07:05;12.30;;;11.50;;
45402;SDS011;47427;51.976;5.326;2023-06-26T19:10:26;12.18;;;11.27;;
45402;SDS011;47427;51.976;5.326;2023-06-26T19:13:53;12.32;;;10.93;;
45402;SDS011;47427;51.976;5.326;2023-06-26T19:17:14;12.90;;;11.63;;
45402;SDS011;47427;51.976;5.326;2023-06-26T19:20:38;12.27;;;11.10;;
45402;SDS011;47427;51.976;5.326;2023-06-26T19:23:59;12.48;;;11.48;;
45402;SDS011;47427;51.976;5.326;2023-06-26T19:27:21;12.50;;;11.50;;
45402;SDS011;47427;51.976;5.326;2023-06-26T19:30:42;12.30;;;11.38;;
45402;SDS011;47427;51.976;5.326;2023-06-26T19:34:05;12.05;;;11.13;;
45402;SDS011;47427;51.976;5.326;2023-06-26T19:37:26;11.73;;;10.70;;
45402;SDS011;47427;51.976;5.326;2023-06-26T19:40:48;12.57;;;11.43;;
45402;SDS011;47427;51.976;5.326;2023-06-26T19:44:09;12.27;;;11.38;;
45402;SDS011;47427;51.976;5.326;2023-06-26T19:47:32;12.40;;;11.43;;
45402;SDS011;47427;51.976;5.326;2023-06-26T19:50:56;15.60;;;11.65;;
45402;SDS011;47427;51.976;5.326;2023-06-26T19:54:17;12.68;;;11.35;;
45402;SDS011;47427;51.976;5.326;2023-06-26T19:58:04;12.80;;;11.63;;
45402;SDS011;47427;51.976;5.326;2023-06-26T20:01:51;13.02;;;11.80;;
45402;SDS011;47427;51.976;5.326;2023-06-26T20:05:12;13.38;;;12.10;;
45402;SDS011;47427;51.976;5.326;2023-06-26T20:08:34;13.25;;;12.15;;
45402;SDS011;47427;51.976;5.326;2023-06-26T20:11:59;13.32;;;12.25;;
45402;SDS011;47427;51.976;5.326;2023-06-26T20:15:21;13.55;;;12.60;;
45402;SDS011;47427;51.976;5.326;2023-06-26T20:19:07;13.63;;;12.30;;
45402;SDS011;47427;51.976;5.326;2023-06-26T20:22:29;13.50;;;12.40;;
45402;SDS011;47427;51.976;5.326;2023-06-26T20:25:50;13.30;;;11.93;;
45402;SDS011;47427;51.976;5.326;2023-06-26T20:29:12;13.18;;;11.43;;
45402;SDS011;47427;51.976;5.326;2023-06-26T20:32:33;13.20;;;11.95;;
45402;SDS011;47427;51.976;5.326;2023-06-26T20:36:20;13.30;;;12.15;;
45402;SDS011;47427;51.976;5.326;2023-06-26T20:40:07;13.23;;;11.80;;